Terminal Aerodrome Forecast
Issued by NWS Sterling, VA

Current Version | Previous Version | Graphics & Text | Print | Product List | Glossary On
Versions: 1 2 3 4 5 6 7 8 9 10 11 12 13 14 15 16 17 18 19 20 21 22 23 24 25 26 27 28
000
FTUS41 KLWX 231128
TAFDCA
TAF
KDCA 231128Z 2312/2412 07021G35KT 3SM RA OVC005
     FM231500 07016G40KT 3SM RA OVC005 WS020/07045KT
     FM231800 07013G26KT 3SM RA OVC005 WS020/07045KT
     FM232100 05013KT 3SM -RA OVC005
     FM240000 04013KT 3SM -SHRA OVC010
     FM240600 35010KT P6SM OVC015=

USA.gov is the U.S. government's official web portal to all federal, state and local government web resources and services.